Time;durP1;ratioP1;P1;durP2;ratioP2;P2;SDS_P1;SDS_P2;PMS_P1;PMS_P2;Temp;Humidity;BMP_temperature;BMP_pressure;BME280_temperature;BME280_humidity;BME280_pressure;Samples;Min_cycle;Max_cycle;Signal;HPM_P1;HPM_P2
2023/05/09 00:00:12;;;;;;;;;;;;;;;16.15;100.00;98348.88;5079693;28;19925;-69
2023/05/09 00:02:39;;;;;;;;;;;;;;;16.36;100.00;98344.03;5077062;28;19932;-70
2023/05/09 00:05:06;;;;;;;;;;;;;;;16.54;100.00;98340.53;5076695;28;19929;-70
2023/05/09 00:07:33;;;;;;;;;;;;;;;16.99;100.00;98342.59;5072243;28;19924;-70
2023/05/09 00:10:00;;;;;;;;;;;;;;;17.00;100.00;98330.69;5080224;28;19966;-70
2023/05/09 00:12:27;;;;;;;;;;;;;;;17.08;100.00;98326.56;5077406;28;19936;-70
2023/05/09 00:14:55;;;;;;;;;;;;;;;16.99;100.00;98331.78;5076926;28;19960;-70
2023/05/09 00:17:23;;;;;;;;;;;;;;;17.02;100.00;98328.50;5078080;28;19921;-70
2023/05/09 00:19:49;;;;;;;;;;;;;;;16.65;100.00;98342.00;5080369;28;19996;-70
2023/05/09 00:22:16;;;;;;;;;;;;;;;16.39;100.00;98336.16;5078887;28;19928;-70
2023/05/09 00:24:43;;;;;;;;;;;;;;;16.41;100.00;98333.97;5076852;28;19955;-70
2023/05/09 00:27:09;;;;;;;;;;;;;;;16.54;100.00;98333.28;5077341;28;19980;-70
2023/05/09 00:29:36;;;;;;;;;;;;;;;16.74;100.00;98326.81;5078944;28;19925;-70
2023/05/09 00:32:02;;;;;;;;;;;;;;;16.82;100.00;98318.03;5080361;28;19925;-70
2023/05/09 00:34:30;;;;;;;;;;;;;;;17.10;100.00;98310.84;5077029;28;20768;-70
2023/05/09 00:36:56;;;;;;;;;;;;;;;17.50;100.00;98314.75;5071201;28;19921;-70
2023/05/09 00:39:23;;;;;;;;;;;;;;;17.77;100.00;98312.91;5079237;28;20327;-70
2023/05/09 00:41:49;;;;;;;;;;;;;;;17.86;100.00;98313.00;5080248;28;20019;-70
2023/05/09 00:44:15;;;;;;;;;;;;;;;17.72;100.00;98309.50;5078940;28;19966;-70
2023/05/09 00:46:41;;;;;;;;;;;;;;;17.57;100.00;98299.00;5076823;28;19980;-70
2023/05/09 00:49:08;;;;;;;;;;;;;;;17.55;100.00;98299.28;5076995;28;19936;-70
2023/05/09 00:51:36;;;;;;;;;;;;;;;17.57;100.00;98299.00;5079114;28;20020;-70
2023/05/09 00:54:03;;;;;;;;;;;;;;;17.51;100.00;98300.16;5080416;28;19966;-70
2023/05/09 00:56:30;;;;;;;;;;;;;;;17.45;100.00;98296.75;5076736;28;19932;-70
2023/05/09 00:58:57;;;;;;;;;;;;;;;17.39;100.00;98295.25;5076676;28;19997;-70
2023/05/09 01:01:23;;;;;;;;;;;;;;;17.57;100.00;98289.00;5079182;28;19992;-70
2023/05/09 01:03:49;;;;;;;;;;;;;;;17.83;100.00;98297.38;5080192;28;20385;-71
2023/05/09 01:06:20;;;;;;;;;;;;;;;17.95;100.00;98294.22;5070255;28;19963;-70
2023/05/09 01:08:53;;;;;;;;;;;;;;;18.04;100.00;98297.81;5076776;28;19960;-71
2023/05/09 01:11:22;;;;;;;;;;;;;;;18.04;100.00;98295.09;5078669;28;19984;-71
2023/05/09 01:13:52;;;;;;;;;;;;;;;17.88;100.00;98301.91;5078627;28;19983;-71
2023/05/09 01:16:22;;;;;;;;;;;;;;;17.74;100.00;98299.19;5078196;28;19976;-71
2023/05/09 01:18:51;;;;;;;;;;;;;;;17.47;100.00;98302.66;5076511;28;19925;-71
2023/05/09 01:21:21;;;;;;;;;;;;;;;17.50;100.00;98293.13;5080268;28;19940;-71
2023/05/09 01:24:03;;;;;;;;;;;;;;;17.42;100.00;98283.84;5083414;28;19960;-71
2023/05/09 01:26:36;;;;;;;;;;;;;;;17.28;100.00;98286.50;5080066;28;19929;-71
2023/05/09 01:29:31;;;;;;;;;;;;;;;17.42;100.00;98286.53;5079781;28;19960;-70
2023/05/09 01:31:58;;;;;;;;;;;;;;;17.22;100.00;98293.09;5071582;28;19928;-71
2023/05/09 01:34:26;;;;;;;;;;;;;;;17.34;100.00;98273.72;5082389;28;19924;-71
2023/05/09 01:36:55;;;;;;;;;;;;;;;17.18;100.00;98277.78;5076808;28;19972;-71
2023/05/09 01:39:24;;;;;;;;;;;;;;;17.05;100.00;98271.25;5082104;28;19952;-71
2023/05/09 01:41:53;;;;;;;;;;;;;;;17.21;100.00;98269.88;5083056;28;19980;-71
2023/05/09 01:44:20;;;;;;;;;;;;;;;17.10;100.00;98276.56;5081025;28;19980;-70
2023/05/09 01:46:48;;;;;;;;;;;;;;;17.07;100.00;98277.16;5079684;28;19984;-70
2023/05/09 01:49:16;;;;;;;;;;;;;;;16.84;100.00;98269.19;5080777;28;20010;-70
2023/05/09 01:51:43;;;;;;;;;;;;;;;16.43;100.00;98274.38;5082916;28;20602;-70
2023/05/09 01:54:10;;;;;;;;;;;;;;;16.10;100.00;98274.28;5082290;28;20409;-70
2023/05/09 01:56:37;;;;;;;;;;;;;;;16.22;100.00;98267.69;5079476;28;19920;-70
2023/05/09 01:59:06;;;;;;;;;;;;;;;16.30;100.00;98269.72;5079297;28;19988;-70
2023/05/09 02:01:33;;;;;;;;;;;;;;;16.36;100.00;98265.84;5074568;28;19924;-70
2023/05/09 02:04:02;;;;;;;;;;;;;;;16.23;100.00;98266.56;5082710;28;20310;-71
2023/05/09 02:06:30;;;;;;;;;;;;;;;16.19;100.00;98260.94;5071077;28;19925;-71
2023/05/09 02:08:56;;;;;;;;;;;;;;;16.06;100.00;98257.06;5079108;28;19925;-71
2023/05/09 02:11:23;;;;;;;;;;;;;;;15.92;100.00;98253.50;5081514;28;19924;-71
2023/05/09 02:13:49;;;;;;;;;;;;;;;15.68;100.00;98258.13;5082634;28;20687;-71
2023/05/09 02:16:16;;;;;;;;;;;;;;;15.82;100.00;98253.63;5081044;28;19928;-71
2023/05/09 02:18:42;;;;;;;;;;;;;;;15.80;100.00;98250.44;5078893;28;19925;-70
2023/05/09 02:21:10;;;;;;;;;;;;;;;15.75;100.00;98258.56;5079166;28;19995;-70
2023/05/09 02:23:36;;;;;;;;;;;;;;;15.86;100.00;98260.03;5082267;28;19920;-70
2023/05/09 02:26:03;;;;;;;;;;;;;;;15.90;100.00;98257.59;5082190;28;19947;-70
2023/05/09 02:28:30;;;;;;;;;;;;;;;15.86;100.00;98260.03;5079020;28;19920;-70
2023/05/09 02:30:58;;;;;;;;;;;;;;;16.24;100.00;98270.88;5078703;28;20095;-70
2023/05/09 02:33:25;;;;;;;;;;;;;;;16.38;100.00;98269.03;5080382;28;19960;-70
2023/05/09 02:35:52;;;;;;;;;;;;;;;16.49;100.00;98257.03;5078722;28;19925;-71
2023/05/09 02:38:20;;;;;;;;;;;;;;;16.19;100.00;98255.56;5078501;28;19970;-70
2023/05/09 02:40:47;;;;;;;;;;;;;;;15.87;100.00;98258.16;5078589;28;19920;-70
2023/05/09 02:43:13;;;;;;;;;;;;;;;15.59;100.00;98259.84;5079383;28;20392;-70
2023/05/09 02:45:40;;;;;;;;;;;;;;;15.47;100.00;98254.03;5081599;28;19925;-70
2023/05/09 02:48:07;;;;;;;;;;;;;;;15.54;100.00;98255.28;5081479;28;19956;-70
2023/05/09 02:50:33;;;;;;;;;;;;;;;15.75;100.00;98255.88;5078218;28;19924;-70
2023/05/09 02:52:59;;;;;;;;;;;;;;;15.77;100.00;98251.00;5078138;28;19989;-71
2023/05/09 02:55:27;;;;;;;;;;;;;;;16.17;100.00;98247.78;5081062;28;20329;-71
2023/05/09 02:57:53;;;;;;;;;;;;;;;16.33;100.00;98240.28;5081394;28;19925;-71
2023/05/09 03:00:21;;;;;;;;;;;;;;;16.18;100.00;98243.19;5078148;28;19978;-71
2023/05/09 03:02:47;;;;;;;;;;;;;;;16.02;100.00;98241.78;5078030;28;19924;-71
2023/05/09 03:05:13;;;;;;;;;;;;;;;16.00;100.00;98236.69;5077763;28;20756;-71
2023/05/09 03:07:40;;;;;;;;;;;;;;;16.25;100.00;98240.16;5074249;28;20015;-71
2023/05/09 03:10:06;;;;;;;;;;;;;;;16.58;100.00;98239.13;5081253;28;19925;-71
2023/05/09 03:12:34;;;;;;;;;;;;;;;16.33;100.00;98240.28;5077808;28;19931;-71
2023/05/09 03:15:01;;;;;;;;;;;;;;;15.99;100.00;98235.09;5077849;28;19925;-71
2023/05/09 03:17:27;;;;;;;;;;;;;;;16.03;100.00;98232.63;5080688;28;19931;-71
2023/05/09 03:19:53;;;;;;;;;;;;;;;16.08;100.00;98230.66;5081190;28;19924;-71
2023/05/09 03:22:20;;;;;;;;;;;;;;;15.69;100.00;98226.63;5079130;28;19989;-71
2023/05/09 03:24:46;;;;;;;;;;;;;;;15.66;100.00;98227.97;5083091;28;19968;-71
2023/05/09 03:27:12;;;;;;;;;;;;;;;16.19;100.00;98223.22;5080205;28;20018;-71
2023/05/09 03:29:40;;;;;;;;;;;;;;;15.98;100.00;98220.03;5077562;28;19955;-71
2023/05/09 03:38:12;;;;;;;;;;;;;;;16.16;100.00;98226.50;5077832;28;19991;-71
2023/05/09 03:40:39;;;;;;;;;;;;;;;16.43;100.00;98225.88;5077744;28;19960;-71
2023/05/09 03:43:05;;;;;;;;;;;;;;;16.66;100.00;98216.88;5076834;28;19929;-71
2023/05/09 03:45:34;;;;;;;;;;;;;;;16.89;100.00;98218.66;5077570;28;19932;-71
2023/05/09 03:48:01;;;;;;;;;;;;;;;17.04;100.00;98223.78;5077218;28;19979;-71
2023/05/09 03:50:28;;;;;;;;;;;;;;;17.10;100.00;98228.00;5080365;28;19921;-71
2023/05/09 03:52:55;;;;;;;;;;;;;;;17.13;100.00;98222.00;5080736;28;19951;-71
2023/05/09 03:55:23;;;;;;;;;;;;;;;17.11;100.00;98213.38;5077319;28;19924;-71
2023/05/09 03:57:49;;;;;;;;;;;;;;;17.05;100.00;98222.66;5077318;28;19928;-71
2023/05/09 04:00:15;;;;;;;;;;;;;;;16.98;100.00;98214.19;5078781;28;19959;-71
2023/05/09 04:02:43;;;;;;;;;;;;;;;16.81;100.00;98219.31;5081218;28;19985;-71
2023/05/09 04:05:09;;;;;;;;;;;;;;;16.49;100.00;98217.41;5077203;28;20044;-71
2023/05/09 04:07:36;;;;;;;;;;;;;;;16.54;100.00;98220.03;5073439;28;19975;-71
2023/05/09 04:10:02;;;;;;;;;;;;;;;16.47;100.00;98213.38;5081071;28;19924;-71
2023/05/09 04:12:29;;;;;;;;;;;;;;;16.33;100.00;98218.72;5077527;28;19935;-71
2023/05/09 04:14:55;;;;;;;;;;;;;;;15.99;100.00;98216.25;5077285;28;19985;-71
2023/05/09 04:17:21;;;;;;;;;;;;;;;15.74;100.00;98219.25;5078629;28;19978;-70
2023/05/09 04:19:49;;;;;;;;;;;;;;;15.35;100.00;98219.41;5081095;28;20012;-70
2023/05/09 04:22:15;;;;;;;;;;;;;;;14.94;100.00;98220.94;5079538;28;19924;-70
2023/05/09 04:24:42;;;;;;;;;;;;;;;14.91;100.00;98213.44;5077199;28;19925;-70
2023/05/09 04:27:08;;;;;;;;;;;;;;;14.92;100.00;98212.31;5077612;28;19925;-70
2023/05/09 04:29:35;;;;;;;;;;;;;;;15.05;100.00;98212.47;5081047;28;19993;-70
2023/05/09 04:32:01;;;;;;;;;;;;;;;15.13;100.00;98211.84;5080724;28;20429;-70
2023/05/09 04:34:28;;;;;;;;;;;;;;;15.63;100.00;98217.78;5077421;28;19925;-70
2023/05/09 04:36:56;;;;;;;;;;;;;;;15.12;100.00;98218.31;5071659;28;19960;-70
2023/05/09 04:39:22;;;;;;;;;;;;;;;15.11;100.00;98214.03;5079189;28;19947;-70
2023/05/09 04:41:48;;;;;;;;;;;;;;;14.92;100.00;98221.19;5080160;28;19924;-70
2023/05/09 04:44:15;;;;;;;;;;;;;;;15.02;100.00;98221.09;5077910;28;19924;-69
2023/05/09 04:46:41;;;;;;;;;;;;;;;15.31;100.00;98218.41;5076840;28;19992;-70
2023/05/09 04:49:08;;;;;;;;;;;;;;;15.19;100.00;98223.38;5075801;28;19972;-70
2023/05/09 04:51:34;;;;;;;;;;;;;;;15.43;100.00;98226.06;5080578;28;19956;-70
2023/05/09 04:54:02;;;;;;;;;;;;;;;15.54;100.00;98227.56;5080831;28;19931;-69
2023/05/09 04:56:28;;;;;;;;;;;;;;;15.61;100.00;98222.66;5080964;28;19988;-69
2023/05/09 04:58:54;;;;;;;;;;;;;;;15.92;100.00;98226.56;5080563;28;19980;-70
2023/05/09 05:01:21;;;;;;;;;;;;;;;15.43;100.00;98226.88;5081490;28;20652;-69
2023/05/09 05:03:47;;;;;;;;;;;;;;;15.03;100.00;98222.72;5084096;28;19988;-69
2023/05/09 05:06:13;;;;;;;;;;;;;;;15.10;100.00;98222.38;5077508;28;19964;-69
2023/05/09 05:08:40;;;;;;;;;;;;;;;14.75;100.00;98220.00;5080523;28;19980;-69
2023/05/09 05:11:07;;;;;;;;;;;;;;;14.95;100.00;98215.25;5080450;28;19983;-69
2023/05/09 05:13:34;;;;;;;;;;;;;;;15.00;100.00;98211.72;5083945;28;19947;-69
2023/05/09 05:16:00;;;;;;;;;;;;;;;14.84;100.00;98208.38;5083739;28;19960;-69
2023/05/09 05:18:26;;;;;;;;;;;;;;;15.06;100.00;98210.59;5080770;28;19991;-70
2023/05/09 05:20:53;;;;;;;;;;;;;;;15.02;100.00;98210.34;5080213;28;19925;-69
2023/05/09 05:23:19;;;;;;;;;;;;;;;14.99;100.00;98216.28;5082074;28;19925;-69
2023/05/09 05:25:46;;;;;;;;;;;;;;;15.20;100.00;98218.75;5083529;28;19952;-70
2023/05/09 05:28:14;;;;;;;;;;;;;;;15.30;100.00;98213.28;5082769;28;20011;-70
2023/05/09 05:30:40;;;;;;;;;;;;;;;15.37;100.00;98211.06;5080966;28;19920;-70
2023/05/09 05:33:06;;;;;;;;;;;;;;;15.42;100.00;98216.38;5080494;28;19928;-70
2023/05/09 05:35:33;;;;;;;;;;;;;;;14.99;100.00;98221.66;5081814;28;20027;-70
2023/05/09 05:37:59;;;;;;;;;;;;;;;14.44;100.00;98206.81;5079207;28;20308;-70
2023/05/09 05:40:26;;;;;;;;;;;;;;;14.42;100.00;98216.25;5080817;28;19924;-70
2023/05/09 05:42:53;;;;;;;;;;;;;;;14.68;100.00;98209.59;5079586;28;19931;-70
2023/05/09 05:45:20;;;;;;;;;;;;;;;15.31;100.00;98214.91;5080449;28;19925;-69
2023/05/09 05:47:47;;;;;;;;;;;;;;;15.71;100.00;98206.38;5083130;28;19928;-69
2023/05/09 05:50:13;;;;;;;;;;;;;;;16.08;100.00;98214.50;5082380;28;19984;-70
2023/05/09 05:52:40;;;;;;;;;;;;;;;15.92;100.00;98212.28;5079772;28;19992;-70
2023/05/09 05:55:06;;;;;;;;;;;;;;;15.63;100.00;98207.00;5079863;28;19988;-70
2023/05/09 05:57:33;;;;;;;;;;;;;;;15.42;100.00;98214.50;5083469;28;19925;-70
2023/05/09 05:59:59;;;;;;;;;;;;;;;15.20;100.00;98208.81;5082969;28;20413;-70
2023/05/09 06:02:27;;;;;;;;;;;;;;;15.31;100.00;98212.22;5080278;28;19984;-70
2023/05/09 06:04:53;;;;;;;;;;;;;;;15.40;100.00;98200.53;5079430;28;19932;-70
2023/05/09 06:07:20;;;;;;;;;;;;;;;15.21;100.00;98204.25;5073940;28;19932;-70
2023/05/09 06:09:46;;;;;;;;;;;;;;;15.58;100.00;98193.63;5082523;28;19946;-70
2023/05/09 06:12:15;;;;;;;;;;;;;;;15.48;92.28;98194.53;5080556;28;20000;-70
2023/05/09 06:14:41;;;;;;;;;;;;;;;15.33;89.51;98193.88;5078075;28;19935;-70
2023/05/09 06:17:08;;;;;;;;;;;;;;;15.74;90.07;98202.31;5078062;28;19996;-70
2023/05/09 06:19:35;;;;;;;;;;;;;;;15.56;86.17;98195.81;5082683;28;19987;-70
2023/05/09 06:22:02;;;;;;;;;;;;;;;15.68;85.00;98190.00;5082645;28;19950;-69
2023/05/09 06:24:28;;;;;;;;;;;;;;;15.74;84.49;98189.66;5079386;28;19924;-69
2023/05/09 06:26:55;;;;;;;;;;;;;;;15.74;82.98;98189.66;5079464;28;19925;-70
2023/05/09 06:29:21;;;;;;;;;;;;;;;15.68;83.50;98185.41;5081031;28;19952;-69
2023/05/09 06:31:47;;;;;;;;;;;;;;;15.77;84.32;98190.94;5082514;28;19992;-70
2023/05/09 06:34:14;;;;;;;;;;;;;;;15.93;83.26;98195.06;5079917;28;19984;-70
2023/05/09 06:36:41;;;;;;;;;;;;;;;15.99;82.13;98194.69;5073432;28;19984;-70
2023/05/09 06:39:08;;;;;;;;;;;;;;;16.16;80.94;98186.88;5079226;28;19992;-70
2023/05/09 06:41:34;;;;;;;;;;;;;;;16.48;83.31;98182.63;5082128;28;19920;-70
2023/05/09 06:44:01;;;;;;;;;;;;;;;17.06;77.93;98177.59;5082266;28;19960;-70
2023/05/09 06:46:28;;;;;;;;;;;;;;;16.52;76.55;98180.97;5078979;28;19935;-70
2023/05/09 06:48:54;;;;;;;;;;;;;;;16.35;76.35;98186.06;5078555;28;19928;-70
2023/05/09 06:51:21;;;;;;;;;;;;;;;16.63;78.21;98175.13;5080487;28;20060;-70
2023/05/09 06:53:48;;;;;;;;;;;;;;;16.71;75.27;98176.38;5082143;28;20280;-70
2023/05/09 06:56:16;;;;;;;;;;;;;;;16.19;75.61;98178.22;5080630;28;19947;-70
2023/05/09 06:58:42;;;;;;;;;;;;;;;16.37;76.65;98181.22;5078321;28;20325;-70
2023/05/09 07:01:08;;;;;;;;;;;;;;;16.10;76.25;98182.66;5077378;28;19935;-70
2023/05/09 07:03:35;;;;;;;;;;;;;;;16.24;78.93;98177.34;5081786;28;19935;-70
2023/05/09 07:06:01;;;;;;;;;;;;;;;15.76;74.62;98182.06;5075747;28;19988;-69
2023/05/09 07:08:27;;;;;;;;;;;;;;;15.67;76.16;98181.13;5077947;28;19968;-70
2023/05/09 07:10:55;;;;;;;;;;;;;;;15.78;76.75;98171.84;5076911;28;19991;-70
2023/05/09 07:13:21;;;;;;;;;;;;;;;15.69;76.70;98178.91;5080149;28;19963;-70
2023/05/09 07:15:48;;;;;;;;;;;;;;;15.66;76.86;98174.91;5081630;28;20103;-70
2023/05/09 07:18:14;;;;;;;;;;;;;;;15.42;78.92;98159.88;5078232;28;19979;-70
2023/05/09 07:20:40;;;;;;;;;;;;;;;15.45;80.80;98153.91;5078041;28;19931;-69
2023/05/09 07:23:06;;;;;;;;;;;;;;;15.68;81.44;98146.91;5077893;28;19992;-69
2023/05/09 07:25:33;;;;;;;;;;;;;;;15.50;81.99;98151.19;5081213;28;19999;-71
2023/05/09 07:28:00;;;;;;;;;;;;;;;15.32;84.36;98144.63;5081617;28;20520;-72
2023/05/09 07:30:27;;;;;;;;;;;;;;;15.94;84.97;98140.88;5078664;28;19929;-71
2023/05/09 07:32:53;;;;;;;;;;;;;;;15.93;81.52;98136.59;5076630;28;19960;-71
2023/05/09 07:35:20;;;;;;;;;;;;;;;15.81;81.57;98147.00;5080933;28;20749;-71
2023/05/09 07:37:46;;;;;;;;;;;;;;;15.69;81.14;98135.06;5074998;28;19942;-71
2023/05/09 07:40:13;;;;;;;;;;;;;;;15.77;84.45;98143.28;5080063;28;19932;-71
2023/05/09 07:42:39;;;;;;;;;;;;;;;15.88;85.06;98120.50;5077564;28;19984;-71
2023/05/09 07:45:09;;;;;;;;;;;;;;;16.49;83.54;98131.13;5077918;28;19959;-71
2023/05/09 07:47:35;;;;;;;;;;;;;;;16.86;78.58;98124.03;5073420;28;19924;-71
2023/05/09 07:50:01;;;;;;;;;;;;;;;16.57;79.00;98126.97;5081423;28;19936;-71
2023/05/09 07:52:28;;;;;;;;;;;;;;;16.64;77.93;98117.41;5077159;28;19964;-71
2023/05/09 07:54:54;;;;;;;;;;;;;;;16.12;79.87;98121.19;5076881;28;19948;-71
2023/05/09 07:57:21;;;;;;;;;;;;;;;16.90;81.44;98117.72;5080122;28;19991;-70
2023/05/09 07:59:47;;;;;;;;;;;;;;;17.33;75.77;98109.34;5081936;28;19924;-71
2023/05/09 08:02:15;;;;;;;;;;;;;;;16.99;77.09;98107.06;5081587;28;19924;-71
2023/05/09 08:04:41;;;;;;;;;;;;;;;16.92;75.19;98101.25;5080083;28;19975;-70
2023/05/09 08:07:08;;;;;;;;;;;;;;;17.13;78.59;98091.66;5078879;28;19944;-70
2023/05/09 08:09:34;;;;;;;;;;;;;;;17.19;75.55;98104.75;5089433;28;19921;-70
2023/05/09 08:12:00;;;;;;;;;;;;;;;16.74;78.92;98094.88;5089183;28;19943;-71
2023/05/09 08:14:27;;;;;;;;;;;;;;;16.59;78.91;98100.50;5086421;28;19920;-70
2023/05/09 08:16:53;;;;;;;;;;;;;;;16.71;80.25;98108.94;5084960;28;19921;-69
2023/05/09 08:19:23;;;;;;;;;;;;;;;16.48;80.05;98101.75;5085615;28;19925;-70
2023/05/09 08:21:49;;;;;;;;;;;;;;;16.77;80.52;98088.88;5087148;28;19936;-70
2023/05/09 08:24:15;;;;;;;;;;;;;;;17.14;76.91;98088.66;5083109;28;19920;-71
2023/05/09 08:26:42;;;;;;;;;;;;;;;16.72;77.94;98092.44;5078852;28;19925;-71
2023/05/09 08:29:09;;;;;;;;;;;;;;;16.70;79.44;98080.38;5078370;28;19928;-70
2023/05/09 08:31:35;;;;;;;;;;;;;;;16.71;80.07;98080.06;5085133;28;19931;-70
2023/05/09 08:34:01;;;;;;;;;;;;;;;16.79;78.98;98059.69;5085063;28;19975;-70
2023/05/09 08:36:29;;;;;;;;;;;;;;;16.98;78.33;98062.28;5076567;28;19991;-71
2023/05/09 08:38:55;;;;;;;;;;;;;;;17.11;77.10;98059.56;5081260;28;19932;-70
2023/05/09 08:41:25;;;;;;;;;;;;;;;16.92;75.35;98060.81;5082957;28;19987;-71
2023/05/09 08:43:51;;;;;;;;;;;;;;;16.76;77.18;98056.78;5084380;28;19978;-71
2023/05/09 08:46:19;;;;;;;;;;;;;;;16.65;76.92;98058.88;5082721;28;19924;-70
2023/05/09 08:48:45;;;;;;;;;;;;;;;16.92;78.03;98047.31;5080755;28;20070;-70
2023/05/09 08:51:12;;;;;;;;;;;;;;;16.93;72.71;98044.28;5081709;28;19960;-73
2023/05/09 08:53:39;;;;;;;;;;;;;;;16.73;70.96;98042.00;5084477;28;19984;-70
2023/05/09 08:56:06;;;;;;;;;;;;;;;16.67;73.89;98056.69;5084593;28;19980;-71
2023/05/09 08:58:34;;;;;;;;;;;;;;;17.32;73.92;98040.25;5076629;28;19924;-70
2023/05/09 09:01:03;;;;;;;;;;;;;;;17.56;68.76;98051.63;5084591;28;19928;-72
2023/05/09 09:03:30;;;;;;;;;;;;;;;17.47;70.72;98039.94;5081166;28;19935;-74
2023/05/09 09:05:57;;;;;;;;;;;;;;;17.46;68.15;98041.03;5081054;28;19991;-71
2023/05/09 09:08:23;;;;;;;;;;;;;;;17.24;72.77;98030.97;5079602;28;19924;-71
2023/05/09 09:10:51;;;;;;;;;;;;;;;17.60;73.21;98039.13;5081033;28;20002;-71
2023/05/09 09:13:18;;;;;;;;;;;;;;;17.23;72.56;98032.09;5082729;28;19967;-74
2023/05/09 09:15:46;;;;;;;;;;;;;;;17.17;75.69;98027.91;5084223;28;19932;-72
2023/05/09 09:18:16;;;;;;;;;;;;;;;17.08;75.75;98019.69;5083991;28;19924;-72
2023/05/09 09:20:45;;;;;;;;;;;;;;;17.96;76.98;98022.88;5080834;28;19967;-72
2023/05/09 09:23:12;;;;;;;;;;;;;;;18.17;75.29;98019.34;5081585;28;19925;-71
2023/05/09 09:25:38;;;;;;;;;;;;;;;17.91;72.57;98023.81;5084254;28;20559;-71
2023/05/09 09:28:19;;;;;;;;;;;;;;;17.66;72.95;98014.41;5084042;28;19924;-72
2023/05/09 09:31:00;;;;;;;;;;;;;;;17.74;71.40;98016.34;5081178;28;19958;-71
2023/05/09 09:33:27;;;;;;;;;;;;;;;17.32;73.28;98008.69;5083317;28;19943;-71
2023/05/09 09:35:55;;;;;;;;;;;;;;;17.60;74.83;98001.31;5080787;28;19956;-72
2023/05/09 09:38:22;;;;;;;;;;;;;;;17.93;72.58;97999.97;5080587;28;19974;-71
2023/05/09 09:40:49;;;;;;;;;;;;;;;17.64;72.71;98007.72;5079870;28;19996;-71
2023/05/09 09:43:17;;;;;;;;;;;;;;;17.56;73.15;97994.94;5081724;28;19921;-71
2023/05/09 09:45:43;;;;;;;;;;;;;;;17.38;71.81;97979.66;5083429;28;19980;-72
2023/05/09 09:48:09;;;;;;;;;;;;;;;17.73;71.36;97992.38;5082447;28;19955;-71
2023/05/09 09:50:36;;;;;;;;;;;;;;;17.79;69.69;97980.34;5079712;28;19984;-71
2023/05/09 09:53:02;;;;;;;;;;;;;;;18.11;65.48;97985.44;5079937;28;19982;-71
2023/05/09 09:55:29;;;;;;;;;;;;;;;18.09;64.22;97976.88;5082830;28;19960;-71
2023/05/09 09:57:55;;;;;;;;;;;;;;;18.28;65.13;97969.34;5083066;28;19960;-72
2023/05/09 10:00:26;;;;;;;;;;;;;;;18.29;64.39;97953.88;5081005;28;19979;-72
2023/05/09 10:02:54;;;;;;;;;;;;;;;18.12;62.57;97962.72;5079920;28;19925;-72
2023/05/09 10:05:21;;;;;;;;;;;;;;;18.66;64.00;97956.13;5082816;28;20608;-71
2023/05/09 10:07:51;;;;;;;;;;;;;;;18.49;64.06;97956.09;5076520;28;19996;-70
2023/05/09 10:10:18;;;;;;;;;;;;;;;18.34;63.37;97938.34;5081074;28;20040;-70
2023/05/09 10:12:45;;;;;;;;;;;;;;;18.58;65.16;97942.56;5079114;28;19932;-71
2023/05/09 10:15:12;;;;;;;;;;;;;;;18.72;64.10;97932.44;5078734;28;19955;-70
2023/05/09 10:17:40;;;;;;;;;;;;;;;18.67;62.80;97935.28;5082696;28;19960;-71
2023/05/09 10:20:07;;;;;;;;;;;;;;;18.90;63.61;97914.34;5082897;28;19956;-70
2023/05/09 10:22:34;;;;;;;;;;;;;;;18.79;62.87;97924.66;5086905;28;19924;-70
2023/05/09 10:25:02;;;;;;;;;;;;;;;18.78;62.25;97923.06;5077080;28;19928;-71
2023/05/09 10:27:31;;;;;;;;;;;;;;;18.78;62.19;97920.38;5079431;28;19932;-71
2023/05/09 10:30:01;;;;;;;;;;;;;;;19.01;62.40;97913.69;5079286;28;19924;-71
2023/05/09 10:32:31;;;;;;;;;;;;;;;19.46;63.22;97903.38;5081835;28;19936;-71
2023/05/09 10:35:04;;;;;;;;;;;;;;;19.25;61.04;97907.81;5082373;28;20020;-71
2023/05/09 10:37:31;;;;;;;;;;;;;;;19.33;62.23;97905.13;5074264;28;19936;-71
2023/05/09 10:39:57;;;;;;;;;;;;;;;19.30;59.61;97894.13;5082515;28;19924;-70
2023/05/09 10:42:24;;;;;;;;;;;;;;;19.28;58.84;97899.84;5080177;28;19992;-71
2023/05/09 10:44:52;;;;;;;;;;;;;;;19.16;60.20;97894.28;5078292;28;19921;-71
2023/05/09 10:47:19;;;;;;;;;;;;;;;19.30;59.18;97894.13;5080108;28;19925;-72
2023/05/09 10:49:45;;;;;;;;;;;;;;;19.08;58.38;97888.88;5081996;28;20629;-71
2023/05/09 10:52:14;;;;;;;;;;;;;;;18.84;59.19;97887.44;5081399;28;20017;-71
2023/05/09 10:54:40;;;;;;;;;;;;;;;18.82;60.66;97878.81;5078416;28;19984;-70
2023/05/09 10:57:09;;;;;;;;;;;;;;;19.18;60.67;97870.41;5076745;28;20292;-70
2023/05/09 10:59:36;;;;;;;;;;;;;;;19.06;60.16;97858.63;5080670;28;19925;-70
2023/05/09 11:02:03;;;;;;;;;;;;;;;19.23;59.55;97855.91;5081627;28;19925;-72
2023/05/09 11:04:30;;;;;;;;;;;;;;;19.21;60.44;97853.53;5078788;28;19963;-73
2023/05/09 11:06:56;;;;;;;;;;;;;;;19.74;60.27;97852.34;5073277;28;19927;-71
2023/05/09 11:09:25;;;;;;;;;;;;;;;19.39;58.00;97852.41;5080427;28;19963;-71
2023/05/09 11:11:53;;;;;;;;;;;;;;;19.16;58.89;97845.53;5081835;28;19929;-71
2023/05/09 11:14:28;;;;;;;;;;;;;;;19.11;60.47;97848.44;5079924;28;19967;-71
2023/05/09 11:16:58;;;;;;;;;;;;;;;19.08;60.58;97842.84;5078252;28;20001;-70
2023/05/09 11:19:37;;;;;;;;;;;;;;;19.10;60.34;97844.13;5080585;28;19925;-71
2023/05/09 11:22:14;;;;;;;;;;;;;;;19.35;61.50;97837.88;5081291;28;19974;-71
2023/05/09 11:24:44;;;;;;;;;;;;;;;19.57;61.58;97828.00;5069414;28;19925;-71
2023/05/09 11:27:14;;;;;;;;;;;;;;;19.69;61.67;97815.38;5078213;28;19920;-72
2023/05/09 11:29:44;;;;;;;;;;;;;;;19.43;60.31;97811.94;5077888;28;19963;-71
2023/05/09 11:32:21;;;;;;;;;;;;;;;19.50;61.00;97804.09;5079037;28;20386;-72
2023/05/09 11:34:49;;;;;;;;;;;;;;;19.65;59.94;97806.28;5080297;28;19932;-72
2023/05/09 11:37:16;;;;;;;;;;;;;;;19.63;60.28;97797.69;5078026;28;20672;-72
2023/05/09 11:39:57;;;;;;;;;;;;;;;19.90;61.10;97796.47;5080088;28;19989;-71
2023/05/09 11:42:23;;;;;;;;;;;;;;;19.71;62.36;97798.78;5077529;28;19966;-72
2023/05/09 11:44:51;;;;;;;;;;;;;;;19.81;63.15;97777.53;5077988;28;19964;-72
2023/05/09 11:47:17;;;;;;;;;;;;;;;20.02;63.24;97774.91;5077803;28;19999;-72
2023/05/09 11:49:44;;;;;;;;;;;;;;;20.05;62.32;97773.44;5081122;28;19924;-72
2023/05/09 11:52:10;;;;;;;;;;;;;;;19.90;61.56;97767.44;5080641;28;19992;-71
2023/05/09 11:54:38;;;;;;;;;;;;;;;19.66;60.55;97763.72;5077612;28;19925;-73
2023/05/09 11:57:05;;;;;;;;;;;;;;;19.80;62.67;97750.78;5077552;28;19965;-71
2023/05/09 11:59:33;;;;;;;;;;;;;;;19.51;62.26;97754.25;5081003;28;19944;-71
2023/05/09 12:02:02;;;;;;;;;;;;;;;19.80;62.63;97743.44;5080961;28;19924;-71
2023/05/09 12:04:30;;;;;;;;;;;;;;;19.91;62.58;97730.31;5075904;28;19925;-72
2023/05/09 12:06:57;;;;;;;;;;;;;;;19.97;61.60;97741.75;5070896;28;19951;-71
2023/05/09 12:09:25;;;;;;;;;;;;;;;19.90;60.83;97734.13;5079554;28;19924;-71
2023/05/09 12:11:51;;;;;;;;;;;;;;;19.94;61.70;97732.34;5080930;28;20355;-71
2023/05/09 12:14:29;;;;;;;;;;;;;;;19.84;62.03;97714.56;5079572;28;19920;-71
2023/05/09 12:16:55;;;;;;;;;;;;;;;20.10;62.55;97710.91;5076086;28;19935;-72
2023/05/09 12:19:22;;;;;;;;;;;;;;;20.30;63.05;97710.94;5077938;28;19998;-72
2023/05/09 12:21:49;;;;;;;;;;;;;;;20.40;63.28;97713.25;5080800;28;20027;-72
2023/05/09 12:24:20;;;;;;;;;;;;;;;20.53;63.89;97710.59;5079488;28;19967;-72
2023/05/09 12:26:47;;;;;;;;;;;;;;;20.63;63.30;97702.06;5077175;28;19925;-72
2023/05/09 12:29:13;;;;;;;;;;;;;;;20.60;64.36;97691.88;5076739;28;19968;-72
2023/05/09 12:31:42;;;;;;;;;;;;;;;20.43;65.08;97695.53;5080631;28;19952;-73
2023/05/09 12:34:09;;;;;;;;;;;;;;;20.33;65.70;97691.28;5080588;28;19984;-73
2023/05/09 12:36:36;;;;;;;;;;;;;;;20.35;67.18;97697.19;5072023;28;19932;-72
2023/05/09 12:39:03;;;;;;;;;;;;;;;20.49;66.92;97690.72;5077024;28;19929;-72
2023/05/09 12:41:30;;;;;;;;;;;;;;;20.58;67.96;97694.13;5079760;28;20042;-71
2023/05/09 12:43:56;;;;;;;;;;;;;;;20.61;68.37;97677.19;5080288;28;19959;-71
2023/05/09 12:46:22;;;;;;;;;;;;;;;20.76;66.44;97687.41;5077951;28;20377;-71
2023/05/09 12:48:50;;;;;;;;;;;;;;;20.65;65.97;97678.88;5076716;28;19956;-71